sensor_id;sensor_type;location;lat;lon;timestamp;P1;durP1;ratioP1;P2;durP2;ratioP2
45909;SDS011;31622;55.416;37.840;2023-07-29T00:01:39;4.03;;;1.33;;
45909;SDS011;31622;55.416;37.840;2023-07-29T00:04:06;2.75;;;1.33;;
45909;SDS011;31622;55.416;37.840;2023-07-29T00:06:34;4.28;;;1.20;;
45909;SDS011;31622;55.416;37.840;2023-07-29T00:09:00;2.13;;;1.23;;
45909;SDS011;31622;55.416;37.840;2023-07-29T00:11:26;3.42;;;1.20;;
45909;SDS011;31622;55.416;37.840;2023-07-29T00:13:51;2.90;;;1.40;;
45909;SDS011;31622;55.416;37.840;2023-07-29T00:16:18;2.53;;;1.50;;
45909;SDS011;31622;55.416;37.840;2023-07-29T00:18:47;3.00;;;1.30;;
45909;SDS011;31622;55.416;37.840;2023-07-29T00:21:13;2.78;;;1.40;;
45909;SDS011;31622;55.416;37.840;2023-07-29T00:23:39;2.22;;;1.10;;
45909;SDS011;31622;55.416;37.840;2023-07-29T00:26:05;2.60;;;1.33;;
45909;SDS011;31622;55.416;37.840;2023-07-29T00:28:30;1.60;;;1.10;;
45909;SDS011;31622;55.416;37.840;2023-07-29T00:30:57;2.80;;;1.40;;
45909;SDS011;31622;55.416;37.840;2023-07-29T00:33:23;3.40;;;1.30;;
45909;SDS011;31622;55.416;37.840;2023-07-29T00:35:49;4.63;;;1.30;;
45909;SDS011;31622;55.416;37.840;2023-07-29T00:38:14;3.92;;;1.63;;
45909;SDS011;31622;55.416;37.840;2023-07-29T00:40:40;2.53;;;1.50;;
45909;SDS011;31622;55.416;37.840;2023-07-29T00:43:06;2.20;;;1.30;;
45909;SDS011;31622;55.416;37.840;2023-07-29T00:45:34;2.63;;;1.52;;
45909;SDS011;31622;55.416;37.840;2023-07-29T00:48:00;3.10;;;1.30;;
45909;SDS011;31622;55.416;37.840;2023-07-29T00:50:26;3.13;;;1.85;;
45909;SDS011;31622;55.416;37.840;2023-07-29T00:52:53;3.65;;;1.45;;
45909;SDS011;31622;55.416;37.840;2023-07-29T00:55:22;2.92;;;1.42;;
45909;SDS011;31622;55.416;37.840;2023-07-29T00:57:48;2.15;;;1.20;;
45909;SDS011;31622;55.416;37.840;2023-07-29T01:00:16;2.53;;;1.00;;
45909;SDS011;31622;55.416;37.840;2023-07-29T01:02:42;3.10;;;1.35;;
45909;SDS011;31622;55.416;37.840;2023-07-29T01:05:08;2.42;;;1.50;;
45909;SDS011;31622;55.416;37.840;2023-07-29T01:13:22;2.83;;;1.77;;
45909;SDS011;31622;55.416;37.840;2023-07-29T01:16:21;2.72;;;2.05;;
45909;SDS011;31622;55.416;37.840;2023-07-29T01:18:51;2.70;;;1.63;;
45909;SDS011;31622;55.416;37.840;2023-07-29T01:21:19;2.92;;;1.65;;
45909;SDS011;31622;55.416;37.840;2023-07-29T01:23:45;3.13;;;1.63;;
45909;SDS011;31622;55.416;37.840;2023-07-29T01:26:11;3.08;;;1.85;;
45909;SDS011;31622;55.416;37.840;2023-07-29T01:28:37;3.80;;;1.70;;
45909;SDS011;31622;55.416;37.840;2023-07-29T01:31:07;4.30;;;1.90;;
45909;SDS011;31622;55.416;37.840;2023-07-29T01:33:45;3.00;;;1.60;;
45909;SDS011;31622;55.416;37.840;2023-07-29T01:36:25;4.05;;;1.75;;
45909;SDS011;31622;55.416;37.840;2023-07-29T01:38:53;5.10;;;2.13;;
45909;SDS011;31622;55.416;37.840;2023-07-29T01:41:20;2.67;;;1.83;;
45909;SDS011;31622;55.416;37.840;2023-07-29T01:43:47;4.35;;;1.90;;
45909;SDS011;31622;55.416;37.840;2023-07-29T01:46:13;2.20;;;1.38;;
45909;SDS011;31622;55.416;37.840;2023-07-29T01:48:40;2.42;;;1.45;;
45909;SDS011;31622;55.416;37.840;2023-07-29T01:51:06;4.85;;;1.52;;
45909;SDS011;31622;55.416;37.840;2023-07-29T01:53:32;1.80;;;1.40;;
45909;SDS011;31622;55.416;37.840;2023-07-29T01:55:58;4.38;;;1.52;;
45909;SDS011;31622;55.416;37.840;2023-07-29T01:58:24;2.63;;;1.35;;
45909;SDS011;31622;55.416;37.840;2023-07-29T02:00:50;4.88;;;1.25;;
45909;SDS011;31622;55.416;37.840;2023-07-29T02:03:17;5.32;;;1.60;;
45909;SDS011;31622;55.416;37.840;2023-07-29T02:05:43;2.97;;;1.42;;
45909;SDS011;31622;55.416;37.840;2023-07-29T02:08:10;3.05;;;1.40;;
45909;SDS011;31622;55.416;37.840;2023-07-29T02:10:37;5.45;;;1.80;;
45909;SDS011;31622;55.416;37.840;2023-07-29T02:13:03;2.30;;;1.30;;
45909;SDS011;31622;55.416;37.840;2023-07-29T02:15:29;2.63;;;1.48;;
45909;SDS011;31622;55.416;37.840;2023-07-29T02:17:55;3.53;;;1.40;;
45909;SDS011;31622;55.416;37.840;2023-07-29T02:20:20;2.97;;;1.50;;
45909;SDS011;31622;55.416;37.840;2023-07-29T02:22:48;2.15;;;1.35;;
45909;SDS011;31622;55.416;37.840;2023-07-29T02:25:14;2.25;;;1.40;;
45909;SDS011;31622;55.416;37.840;2023-07-29T02:27:40;4.00;;;1.30;;
45909;SDS011;31622;55.416;37.840;2023-07-29T02:30:06;2.65;;;1.48;;
45909;SDS011;31622;55.416;37.840;2023-07-29T02:32:34;2.28;;;1.33;;
45909;SDS011;31622;55.416;37.840;2023-07-29T02:35:00;2.08;;;1.42;;
45909;SDS011;31622;55.416;37.840;2023-07-29T02:37:26;3.45;;;1.50;;
45909;SDS011;31622;55.416;37.840;2023-07-29T02:39:52;4.43;;;1.60;;
45909;SDS011;31622;55.416;37.840;2023-07-29T02:42:18;3.85;;;1.67;;
45909;SDS011;31622;55.416;37.840;2023-07-29T02:44:43;3.13;;;1.58;;
45909;SDS011;31622;55.416;37.840;2023-07-29T02:47:09;2.92;;;1.50;;
45909;SDS011;31622;55.416;37.840;2023-07-29T02:49:35;4.25;;;1.50;;
45909;SDS011;31622;55.416;37.840;2023-07-29T02:52:01;5.13;;;2.03;;
45909;SDS011;31622;55.416;37.840;2023-07-29T02:54:26;3.33;;;1.40;;
45909;SDS011;31622;55.416;37.840;2023-07-29T02:56:52;3.17;;;1.52;;
45909;SDS011;31622;55.416;37.840;2023-07-29T02:59:18;3.08;;;1.52;;
45909;SDS011;31622;55.416;37.840;2023-07-29T03:01:45;3.65;;;2.05;;
45909;SDS011;31622;55.416;37.840;2023-07-29T03:04:11;3.47;;;2.00;;
45909;SDS011;31622;55.416;37.840;2023-07-29T03:06:38;3.03;;;1.88;;
45909;SDS011;31622;55.416;37.840;2023-07-29T03:09:04;3.28;;;1.90;;
45909;SDS011;31622;55.416;37.840;2023-07-29T03:11:30;2.90;;;1.70;;
45909;SDS011;31622;55.416;37.840;2023-07-29T03:13:56;3.45;;;1.65;;
45909;SDS011;31622;55.416;37.840;2023-07-29T03:16:22;2.63;;;1.40;;
45909;SDS011;31622;55.416;37.840;2023-07-29T03:18:53;4.13;;;1.85;;
45909;SDS011;31622;55.416;37.840;2023-07-29T03:21:18;3.92;;;1.75;;
45909;SDS011;31622;55.416;37.840;2023-07-29T03:23:44;3.25;;;1.90;;
45909;SDS011;31622;55.416;37.840;2023-07-29T03:26:10;2.30;;;1.80;;
45909;SDS011;31622;55.416;37.840;2023-07-29T03:28:37;3.50;;;1.95;;
45909;SDS011;31622;55.416;37.840;2023-07-29T03:31:06;2.72;;;1.80;;
45909;SDS011;31622;55.416;37.840;2023-07-29T03:33:32;2.55;;;1.80;;
45909;SDS011;31622;55.416;37.840;2023-07-29T03:35:58;3.90;;;1.98;;
45909;SDS011;31622;55.416;37.840;2023-07-29T03:38:25;4.57;;;1.73;;
45909;SDS011;31622;55.416;37.840;2023-07-29T03:40:51;4.75;;;1.85;;
45909;SDS011;31622;55.416;37.840;2023-07-29T03:43:16;2.20;;;1.70;;
45909;SDS011;31622;55.416;37.840;2023-07-29T03:45:42;3.00;;;1.70;;
45909;SDS011;31622;55.416;37.840;2023-07-29T03:48:08;4.15;;;1.80;;
45909;SDS011;31622;55.416;37.840;2023-07-29T03:50:35;2.90;;;1.92;;
45909;SDS011;31622;55.416;37.840;2023-07-29T03:53:04;3.38;;;1.70;;
45909;SDS011;31622;55.416;37.840;2023-07-29T03:55:31;2.13;;;1.58;;
45909;SDS011;31622;55.416;37.840;2023-07-29T03:57:57;4.07;;;1.95;;
45909;SDS011;31622;55.416;37.840;2023-07-29T04:00:23;2.42;;;1.65;;
45909;SDS011;31622;55.416;37.840;2023-07-29T04:02:49;4.32;;;1.95;;
45909;SDS011;31622;55.416;37.840;2023-07-29T04:05:16;6.32;;;1.60;;
45909;SDS011;31622;55.416;37.840;2023-07-29T04:07:42;2.65;;;1.80;;
45909;SDS011;31622;55.416;37.840;2023-07-29T04:10:08;4.40;;;1.83;;
45909;SDS011;31622;55.416;37.840;2023-07-29T04:12:34;3.03;;;1.70;;
45909;SDS011;31622;55.416;37.840;2023-07-29T04:14:59;2.30;;;1.58;;
45909;SDS011;31622;55.416;37.840;2023-07-29T04:17:27;2.38;;;1.40;;
45909;SDS011;31622;55.416;37.840;2023-07-29T04:19:53;2.83;;;1.80;;
45909;SDS011;31622;55.416;37.840;2023-07-29T04:22:21;2.08;;;1.40;;
45909;SDS011;31622;55.416;37.840;2023-07-29T04:24:47;2.45;;;1.60;;
45909;SDS011;31622;55.416;37.840;2023-07-29T04:27:13;3.63;;;1.92;;
45909;SDS011;31622;55.416;37.840;2023-07-29T04:29:39;3.63;;;1.60;;
45909;SDS011;31622;55.416;37.840;2023-07-29T04:32:05;2.92;;;1.35;;
45909;SDS011;31622;55.416;37.840;2023-07-29T04:34:31;2.47;;;1.40;;
45909;SDS011;31622;55.416;37.840;2023-07-29T04:36:57;3.08;;;1.50;;
45909;SDS011;31622;55.416;37.840;2023-07-29T04:39:23;3.05;;;1.83;;
45909;SDS011;31622;55.416;37.840;2023-07-29T04:41:49;5.63;;;1.63;;
45909;SDS011;31622;55.416;37.840;2023-07-29T04:44:15;3.35;;;1.73;;
45909;SDS011;31622;55.416;37.840;2023-07-29T04:46:41;2.65;;;1.77;;
45909;SDS011;31622;55.416;37.840;2023-07-29T04:49:06;3.30;;;1.60;;
45909;SDS011;31622;55.416;37.840;2023-07-29T04:51:32;2.55;;;1.50;;
45909;SDS011;31622;55.416;37.840;2023-07-29T04:53:58;3.45;;;2.17;;
45909;SDS011;31622;55.416;37.840;2023-07-29T04:56:24;3.78;;;2.50;;
45909;SDS011;31622;55.416;37.840;2023-07-29T04:58:50;5.00;;;2.83;;
45909;SDS011;31622;55.416;37.840;2023-07-29T05:01:16;4.38;;;2.45;;
45909;SDS011;31622;55.416;37.840;2023-07-29T05:03:42;4.13;;;2.42;;
45909;SDS011;31622;55.416;37.840;2023-07-29T05:06:08;4.18;;;2.33;;
45909;SDS011;31622;55.416;37.840;2023-07-29T05:08:33;5.13;;;2.35;;
45909;SDS011;31622;55.416;37.840;2023-07-29T05:10:59;3.63;;;2.20;;
45909;SDS011;31622;55.416;37.840;2023-07-29T05:13:25;5.60;;;2.40;;
45909;SDS011;31622;55.416;37.840;2023-07-29T05:15:51;3.45;;;2.15;;
45909;SDS011;31622;55.416;37.840;2023-07-29T05:18:18;3.13;;;2.30;;
45909;SDS011;31622;55.416;37.840;2023-07-29T05:20:44;3.22;;;2.08;;
45909;SDS011;31622;55.416;37.840;2023-07-29T05:23:09;4.45;;;2.00;;
45909;SDS011;31622;55.416;37.840;2023-07-29T05:25:35;6.05;;;2.35;;
45909;SDS011;31622;55.416;37.840;2023-07-29T05:28:01;6.25;;;2.25;;
45909;SDS011;31622;55.416;37.840;2023-07-29T05:30:28;3.50;;;2.15;;
45909;SDS011;31622;55.416;37.840;2023-07-29T05:32:59;3.00;;;2.10;;
45909;SDS011;31622;55.416;37.840;2023-07-29T05:35:25;3.10;;;1.90;;
45909;SDS011;31622;55.416;37.840;2023-07-29T05:37:52;3.60;;;2.22;;
45909;SDS011;31622;55.416;37.840;2023-07-29T05:40:17;4.55;;;2.25;;
45909;SDS011;31622;55.416;37.840;2023-07-29T05:42:43;3.17;;;2.10;;
45909;SDS011;31622;55.416;37.840;2023-07-29T05:45:10;3.72;;;2.15;;
45909;SDS011;31622;55.416;37.840;2023-07-29T05:47:36;3.15;;;1.83;;
45909;SDS011;31622;55.416;37.840;2023-07-29T05:50:02;4.55;;;1.80;;
45909;SDS011;31622;55.416;37.840;2023-07-29T05:52:32;6.22;;;2.00;;
45909;SDS011;31622;55.416;37.840;2023-07-29T05:54:59;2.88;;;1.92;;
45909;SDS011;31622;55.416;37.840;2023-07-29T05:57:25;3.80;;;2.15;;
45909;SDS011;31622;55.416;37.840;2023-07-29T05:59:50;7.03;;;2.78;;
45909;SDS011;31622;55.416;37.840;2023-07-29T06:02:16;6.90;;;2.90;;
45909;SDS011;31622;55.416;37.840;2023-07-29T06:04:42;9.00;;;3.03;;
45909;SDS011;31622;55.416;37.840;2023-07-29T06:07:08;9.23;;;3.15;;
45909;SDS011;31622;55.416;37.840;2023-07-29T06:09:34;10.88;;;3.40;;
45909;SDS011;31622;55.416;37.840;2023-07-29T06:12:00;5.47;;;3.20;;
45909;SDS011;31622;55.416;37.840;2023-07-29T06:14:26;9.27;;;4.03;;
45909;SDS011;31622;55.416;37.840;2023-07-29T06:16:52;9.52;;;3.38;;
45909;SDS011;31622;55.416;37.840;2023-07-29T06:19:18;6.72;;;3.00;;
45909;SDS011;31622;55.416;37.840;2023-07-29T06:21:46;6.80;;;2.75;;
45909;SDS011;31622;55.416;37.840;2023-07-29T06:24:11;5.85;;;2.25;;
45909;SDS011;31622;55.416;37.840;2023-07-29T06:26:38;2.75;;;1.98;;
45909;SDS011;31622;55.416;37.840;2023-07-29T06:29:03;2.88;;;1.92;;
45909;SDS011;31622;55.416;37.840;2023-07-29T06:31:29;5.65;;;2.00;;
45909;SDS011;31622;55.416;37.840;2023-07-29T06:33:55;3.67;;;2.10;;
45909;SDS011;31622;55.416;37.840;2023-07-29T06:36:21;5.45;;;2.20;;
45909;SDS011;31622;55.416;37.840;2023-07-29T06:38:47;4.45;;;1.90;;
45909;SDS011;31622;55.416;37.840;2023-07-29T06:41:13;3.92;;;1.77;;
45909;SDS011;31622;55.416;37.840;2023-07-29T06:43:39;4.53;;;2.25;;
45909;SDS011;31622;55.416;37.840;2023-07-29T06:46:04;3.75;;;1.80;;
45909;SDS011;31622;55.416;37.840;2023-07-29T06:48:30;4.15;;;2.00;;
45909;SDS011;31622;55.416;37.840;2023-07-29T06:50:56;4.07;;;2.10;;
45909;SDS011;31622;55.416;37.840;2023-07-29T06:53:26;4.32;;;1.80;;
45909;SDS011;31622;55.416;37.840;2023-07-29T06:55:52;9.13;;;2.50;;
45909;SDS011;31622;55.416;37.840;2023-07-29T06:58:18;10.82;;;2.60;;
45909;SDS011;31622;55.416;37.840;2023-07-29T07:00:44;5.05;;;2.45;;
45909;SDS011;31622;55.416;37.840;2023-07-29T07:03:09;4.18;;;2.17;;
45909;SDS011;31622;55.416;37.840;2023-07-29T07:05:35;4.65;;;2.20;;
45909;SDS011;31622;55.416;37.840;2023-07-29T07:08:01;6.40;;;2.05;;
45909;SDS011;31622;55.416;37.840;2023-07-29T07:10:27;5.10;;;2.17;;
45909;SDS011;31622;55.416;37.840;2023-07-29T07:12:52;3.33;;;1.95;;
45909;SDS011;31622;55.416;37.840;2023-07-29T07:15:18;3.63;;;2.35;;
45909;SDS011;31622;55.416;37.840;2023-07-29T07:17:44;4.97;;;1.90;;
45909;SDS011;31622;55.416;37.840;2023-07-29T07:20:09;3.30;;;2.25;;
45909;SDS011;31622;55.416;37.840;2023-07-29T07:22:36;2.28;;;2.00;;
45909;SDS011;31622;55.416;37.840;2023-07-29T07:25:02;2.72;;;2.30;;
45909;SDS011;31622;55.416;37.840;2023-07-29T07:27:28;7.38;;;2.22;;
45909;SDS011;31622;55.416;37.840;2023-07-29T07:29:54;5.40;;;2.13;;
45909;SDS011;31622;55.416;37.840;2023-07-29T07:32:19;4.57;;;2.22;;
45909;SDS011;31622;55.416;37.840;2023-07-29T07:34:45;5.97;;;2.70;;
45909;SDS011;31622;55.416;37.840;2023-07-29T07:37:11;6.57;;;2.95;;
45909;SDS011;31622;55.416;37.840;2023-07-29T07:39:36;5.80;;;2.80;;
45909;SDS011;31622;55.416;37.840;2023-07-29T07:42:02;3.83;;;2.40;;
45909;SDS011;31622;55.416;37.840;2023-07-29T07:44:28;6.88;;;3.20;;
45909;SDS011;31622;55.416;37.840;2023-07-29T07:46:54;5.85;;;3.65;;
45909;SDS011;31622;55.416;37.840;2023-07-29T07:49:19;6.93;;;3.53;;
45909;SDS011;31622;55.416;37.840;2023-07-29T07:51:45;8.82;;;3.60;;
45909;SDS011;31622;55.416;37.840;2023-07-29T07:54:11;11.15;;;4.18;;
45909;SDS011;31622;55.416;37.840;2023-07-29T07:56:36;7.65;;;3.40;;
45909;SDS011;31622;55.416;37.840;2023-07-29T07:59:02;9.50;;;3.22;;
45909;SDS011;31622;55.416;37.840;2023-07-29T08:01:28;9.70;;;2.85;;
45909;SDS011;31622;55.416;37.840;2023-07-29T08:04:00;6.55;;;2.65;;
45909;SDS011;31622;55.416;37.840;2023-07-29T08:06:25;9.80;;;3.42;;
45909;SDS011;31622;55.416;37.840;2023-07-29T08:08:51;18.58;;;6.10;;
45909;SDS011;31622;55.416;37.840;2023-07-29T08:11:17;34.58;;;11.05;;
45909;SDS011;31622;55.416;37.840;2023-07-29T08:13:42;42.75;;;15.02;;
45909;SDS011;31622;55.416;37.840;2023-07-29T08:16:08;58.33;;;18.73;;
45909;SDS011;31622;55.416;37.840;2023-07-29T08:18:34;42.38;;;14.68;;
45909;SDS011;31622;55.416;37.840;2023-07-29T08:21:00;58.30;;;19.40;;
45909;SDS011;31622;55.416;37.840;2023-07-29T08:23:32;35.35;;;13.13;;
45909;SDS011;31622;55.416;37.840;2023-07-29T08:25:59;29.75;;;11.02;;
45909;SDS011;31622;55.416;37.840;2023-07-29T08:28:27;31.35;;;11.45;;
45909;SDS011;31622;55.416;37.840;2023-07-29T08:31:03;17.45;;;8.07;;
45909;SDS011;31622;55.416;37.840;2023-07-29T08:33:30;17.67;;;7.95;;
45909;SDS011;31622;55.416;37.840;2023-07-29T08:35:57;15.27;;;6.68;;
45909;SDS011;31622;55.416;37.840;2023-07-29T08:38:22;13.77;;;6.38;;
45909;SDS011;31622;55.416;37.840;2023-07-29T08:40:49;16.08;;;5.65;;
45909;SDS011;31622;55.416;37.840;2023-07-29T08:43:22;11.70;;;4.80;;
45909;SDS011;31622;55.416;37.840;2023-07-29T08:45:53;5.47;;;3.70;;
45909;SDS011;31622;55.416;37.840;2023-07-29T08:48:19;13.18;;;5.30;;
45909;SDS011;31622;55.416;37.840;2023-07-29T08:50:51;9.88;;;4.00;;
45909;SDS011;31622;55.416;37.840;2023-07-29T08:53:17;10.13;;;4.78;;
45909;SDS011;31622;55.416;37.840;2023-07-29T08:55:43;6.03;;;3.47;;
45909;SDS011;31622;55.416;37.840;2023-07-29T08:58:09;7.05;;;4.00;;
45909;SDS011;31622;55.416;37.840;2023-07-29T09:00:36;6.93;;;3.42;;
45909;SDS011;31622;55.416;37.840;2023-07-29T09:03:02;8.30;;;3.60;;
45909;SDS011;31622;55.416;37.840;2023-07-29T09:05:32;5.40;;;3.42;;
45909;SDS011;31622;55.416;37.840;2023-07-29T09:07:59;5.78;;;3.38;;
45909;SDS011;31622;55.416;37.840;2023-07-29T09:10:25;5.32;;;2.90;;
45909;SDS011;31622;55.416;37.840;2023-07-29T09:12:51;4.95;;;3.17;;
45909;SDS011;31622;55.416;37.840;2023-07-29T09:15:28;6.60;;;2.80;;
45909;SDS011;31622;55.416;37.840;2023-07-29T09:17:57;5.13;;;3.00;;
45909;SDS011;31622;55.416;37.840;2023-07-29T09:20:27;6.32;;;3.05;;
45909;SDS011;31622;55.416;37.840;2023-07-29T09:22:53;4.30;;;2.92;;
45909;SDS011;31622;55.416;37.840;2023-07-29T09:25:30;3.95;;;2.83;;
45909;SDS011;31622;55.416;37.840;2023-07-29T09:27:59;5.63;;;3.08;;
45909;SDS011;31622;55.416;37.840;2023-07-29T09:30:26;5.32;;;3.17;;
45909;SDS011;31622;55.416;37.840;2023-07-29T09:32:58;3.92;;;2.90;;
45909;SDS011;31622;55.416;37.840;2023-07-29T09:35:27;5.20;;;3.03;;
45909;SDS011;31622;55.416;37.840;2023-07-29T09:37:54;5.22;;;2.60;;
45909;SDS011;31622;55.416;37.840;2023-07-29T09:40:20;5.55;;;3.00;;
45909;SDS011;31622;55.416;37.840;2023-07-29T09:42:49;4.13;;;2.50;;
45909;SDS011;31622;55.416;37.840;2023-07-29T09:45:26;3.17;;;2.53;;
45909;SDS011;31622;55.416;37.840;2023-07-29T09:47:52;2.80;;;2.13;;
45909;SDS011;31622;55.416;37.840;2023-07-29T09:50:20;5.35;;;2.67;;
45909;SDS011;31622;55.416;37.840;2023-07-29T09:52:49;3.65;;;2.33;;
45909;SDS011;31622;55.416;37.840;2023-07-29T09:55:19;3.42;;;2.15;;
45909;SDS011;31622;55.416;37.840;2023-07-29T09:57:52;3.72;;;2.80;;
45909;SDS011;31622;55.416;37.840;2023-07-29T10:00:22;3.78;;;2.15;;
45909;SDS011;31622;55.416;37.840;2023-07-29T10:02:48;4.28;;;2.28;;
45909;SDS011;31622;55.416;37.840;2023-07-29T10:05:14;5.00;;;2.15;;
45909;SDS011;31622;55.416;37.840;2023-07-29T10:07:40;5.00;;;3.45;;
45909;SDS011;31622;55.416;37.840;2023-07-29T10:10:06;6.68;;;3.38;;
45909;SDS011;31622;55.416;37.840;2023-07-29T10:12:33;4.30;;;2.85;;
45909;SDS011;31622;55.416;37.840;2023-07-29T10:15:02;3.17;;;2.40;;
45909;SDS011;31622;55.416;37.840;2023-07-29T10:17:29;3.85;;;2.80;;
45909;SDS011;31622;55.416;37.840;2023-07-29T10:19:56;4.47;;;2.80;;
45909;SDS011;31622;55.416;37.840;2023-07-29T10:22:24;3.78;;;2.85;;
45909;SDS011;31622;55.416;37.840;2023-07-29T10:24:52;4.70;;;3.00;;
45909;SDS011;31622;55.416;37.840;2023-07-29T10:27:19;3.38;;;2.45;;
45909;SDS011;31622;55.416;37.840;2023-07-29T10:29:46;4.85;;;3.35;;
45909;SDS011;31622;55.416;37.840;2023-07-29T10:32:13;3.95;;;2.80;;
45909;SDS011;31622;55.416;37.840;2023-07-29T10:34:39;3.83;;;2.80;;
45909;SDS011;31622;55.416;37.840;2023-07-29T10:37:05;4.43;;;3.20;;
45909;SDS011;31622;55.416;37.840;2023-07-29T10:39:40;3.75;;;2.72;;
45909;SDS011;31622;55.416;37.840;2023-07-29T10:42:10;5.90;;;2.97;;
45909;SDS011;31622;55.416;37.840;2023-07-29T10:47:17;4.88;;;3.22;;
45909;SDS011;31622;55.416;37.840;2023-07-29T10:49:44;4.45;;;2.70;;
45909;SDS011;31622;55.416;37.840;2023-07-29T10:52:15;4.82;;;3.08;;
45909;SDS011;31622;55.416;37.840;2023-07-29T10:54:42;4.22;;;2.60;;
45909;SDS011;31622;55.416;37.840;2023-07-29T10:57:12;4.18;;;2.40;;
45909;SDS011;31622;55.416;37.840;2023-07-29T10:59:39;6.93;;;2.30;;
45909;SDS011;31622;55.416;37.840;2023-07-29T11:02:11;3.33;;;2.40;;
45909;SDS011;31622;55.416;37.840;2023-07-29T11:04:48;3.28;;;2.17;;
45909;SDS011;31622;55.416;37.840;2023-07-29T11:09:41;4.18;;;2.40;;
45909;SDS011;31622;55.416;37.840;2023-07-29T11:15:03;2.88;;;2.15;;
45909;SDS011;31622;55.416;37.840;2023-07-29T11:17:33;3.35;;;2.17;;
45909;SDS011;31622;55.416;37.840;2023-07-29T11:20:02;3.33;;;2.28;;
45909;SDS011;31622;55.416;37.840;2023-07-29T11:22:29;2.95;;;1.80;;
45909;SDS011;31622;55.416;37.840;2023-07-29T11:24:55;2.70;;;1.70;;
45909;SDS011;31622;55.416;37.840;2023-07-29T11:27:21;3.17;;;1.92;;
45909;SDS011;31622;55.416;37.840;2023-07-29T11:29:47;2.88;;;1.85;;
45909;SDS011;31622;55.416;37.840;2023-07-29T11:32:13;3.60;;;1.70;;
45909;SDS011;31622;55.416;37.840;2023-07-29T11:34:39;3.30;;;1.98;;
45909;SDS011;31622;55.416;37.840;2023-07-29T11:37:06;3.30;;;1.55;;
45909;SDS011;31622;55.416;37.840;2023-07-29T11:39:39;3.08;;;1.80;;
45909;SDS011;31622;55.416;37.840;2023-07-29T11:42:06;2.72;;;1.88;;
45909;SDS011;31622;55.416;37.840;2023-07-29T11:44:32;4.15;;;2.10;;
45909;SDS011;31622;55.416;37.840;2023-07-29T11:46:57;3.88;;;2.00;;
45909;SDS011;31622;55.416;37.840;2023-07-29T11:49:23;3.15;;;2.15;;
45909;SDS011;31622;55.416;37.840;2023-07-29T11:51:49;4.13;;;2.10;;
45909;SDS011;31622;55.416;37.840;2023-07-29T11:54:15;5.45;;;2.42;;
45909;SDS011;31622;55.416;37.840;2023-07-29T11:56:40;3.15;;;2.00;;
45909;SDS011;31622;55.416;37.840;2023-07-29T11:59:06;2.50;;;1.77;;
45909;SDS011;31622;55.416;37.840;2023-07-29T12:01:32;3.17;;;1.80;;
45909;SDS011;31622;55.416;37.840;2023-07-29T12:03:58;5.43;;;2.00;;
45909;SDS011;31622;55.416;37.840;2023-07-29T12:06:24;5.05;;;2.10;;
45909;SDS011;31622;55.416;37.840;2023-07-29T12:08:50;3.47;;;2.00;;
45909;SDS011;31622;55.416;37.840;2023-07-29T12:11:16;3.97;;;2.17;;
45909;SDS011;31622;55.416;37.840;2023-07-29T12:13:42;3.42;;;2.00;;
45909;SDS011;31622;55.416;37.840;2023-07-29T12:16:08;4.10;;;1.95;;
45909;SDS011;31622;55.416;37.840;2023-07-29T12:18:35;5.10;;;2.42;;
45909;SDS011;31622;55.416;37.840;2023-07-29T12:21:01;3.58;;;2.35;;
45909;SDS011;31622;55.416;37.840;2023-07-29T12:23:28;3.35;;;2.25;;
45909;SDS011;31622;55.416;37.840;2023-07-29T12:25:58;4.00;;;2.03;;
45909;SDS011;31622;55.416;37.840;2023-07-29T12:28:24;5.45;;;2.35;;
45909;SDS011;31622;55.416;37.840;2023-07-29T12:30:53;3.20;;;2.33;;
45909;SDS011;31622;55.416;37.840;2023-07-29T12:35:54;7.13;;;2.70;;
45909;SDS011;31622;55.416;37.840;2023-07-29T12:38:25;4.45;;;2.60;;
45909;SDS011;31622;55.416;37.840;2023-07-29T12:40:51;3.83;;;2.50;;
45909;SDS011;31622;55.416;37.840;2023-07-29T12:43:17;5.70;;;2.28;;
45909;SDS011;31622;55.416;37.840;2023-07-29T12:45:43;4.78;;;2.28;;
45909;SDS011;31622;55.416;37.840;2023-07-29T12:48:09;3.58;;;2.50;;
45909;SDS011;31622;55.416;37.840;2023-07-29T12:50:36;4.50;;;3.20;;
45909;SDS011;31622;55.416;37.840;2023-07-29T12:53:03;5.43;;;2.80;;
45909;SDS011;31622;55.416;37.840;2023-07-29T12:55:33;2.97;;;2.20;;
45909;SDS011;31622;55.416;37.840;2023-07-29T12:57:59;4.75;;;2.63;;
45909;SDS011;31622;55.416;37.840;2023-07-29T13:00:25;5.50;;;2.92;;
45909;SDS011;31622;55.416;37.840;2023-07-29T13:02:50;3.75;;;2.30;;
45909;SDS011;31622;55.416;37.840;2023-07-29T13:05:16;3.92;;;2.50;;
45909;SDS011;31622;55.416;37.840;2023-07-29T13:07:42;4.93;;;2.60;;
45909;SDS011;31622;55.416;37.840;2023-07-29T13:10:09;4.20;;;2.80;;
45909;SDS011;31622;55.416;37.840;2023-07-29T13:12:36;5.78;;;2.65;;
45909;SDS011;31622;55.416;37.840;2023-07-29T13:15:03;6.53;;;3.03;;
45909;SDS011;31622;55.416;37.840;2023-07-29T13:17:29;5.22;;;2.95;;
45909;SDS011;31622;55.416;37.840;2023-07-29T13:19:55;5.35;;;2.92;;
45909;SDS011;31622;55.416;37.840;2023-07-29T13:22:20;5.50;;;2.92;;
45909;SDS011;31622;55.416;37.840;2023-07-29T13:24:46;3.85;;;2.78;;
45909;SDS011;31622;55.416;37.840;2023-07-29T13:27:12;5.80;;;3.28;;
45909;SDS011;31622;55.416;37.840;2023-07-29T13:29:38;4.13;;;2.90;;
45909;SDS011;31622;55.416;37.840;2023-07-29T13:32:05;4.38;;;2.88;;
45909;SDS011;31622;55.416;37.840;2023-07-29T13:34:31;5.38;;;3.20;;
45909;SDS011;31622;55.416;37.840;2023-07-29T13:36:57;4.10;;;2.90;;
45909;SDS011;31622;55.416;37.840;2023-07-29T13:39:23;4.20;;;2.85;;
45909;SDS011;31622;55.416;37.840;2023-07-29T13:41:48;4.72;;;3.10;;
45909;SDS011;31622;55.416;37.840;2023-07-29T13:44:14;6.18;;;3.00;;
45909;SDS011;31622;55.416;37.840;2023-07-29T13:46:40;5.45;;;3.10;;
45909;SDS011;31622;55.416;37.840;2023-07-29T13:49:06;4.53;;;3.05;;
45909;SDS011;31622;55.416;37.840;2023-07-29T13:51:31;6.00;;;3.10;;
45909;SDS011;31622;55.416;37.840;2023-07-29T13:53:57;10.35;;;3.60;;
45909;SDS011;31622;55.416;37.840;2023-07-29T13:56:23;8.35;;;3.70;;
45909;SDS011;31622;55.416;37.840;2023-07-29T13:58:48;4.18;;;3.13;;
45909;SDS011;31622;55.416;37.840;2023-07-29T14:01:14;7.68;;;3.15;;
45909;SDS011;31622;55.416;37.840;2023-07-29T14:03:40;16.63;;;5.47;;
45909;SDS011;31622;55.416;37.840;2023-07-29T14:06:06;19.42;;;6.70;;
45909;SDS011;31622;55.416;37.840;2023-07-29T14:08:31;57.47;;;12.68;;
45909;SDS011;31622;55.416;37.840;2023-07-29T14:10:57;83.30;;;18.13;;
45909;SDS011;31622;55.416;37.840;2023-07-29T14:13:23;75.90;;;17.58;;
45909;SDS011;31622;55.416;37.840;2023-07-29T14:15:49;73.18;;;19.42;;
45909;SDS011;31622;55.416;37.840;2023-07-29T14:18:14;73.80;;;22.00;;
45909;SDS011;31622;55.416;37.840;2023-07-29T14:20:40;49.22;;;14.70;;
45909;SDS011;31622;55.416;37.840;2023-07-29T14:23:06;50.95;;;14.95;;
45909;SDS011;31622;55.416;37.840;2023-07-29T14:25:31;43.45;;;13.25;;
45909;SDS011;31622;55.416;37.840;2023-07-29T14:27:57;44.05;;;14.07;;
45909;SDS011;31622;55.416;37.840;2023-07-29T14:30:23;33.67;;;11.82;;
45909;SDS011;31622;55.416;37.840;2023-07-29T14:32:49;21.35;;;8.02;;
45909;SDS011;31622;55.416;37.840;2023-07-29T14:35:14;20.23;;;7.57;;
45909;SDS011;31622;55.416;37.840;2023-07-29T14:37:40;20.27;;;7.93;;
45909;SDS011;31622;55.416;37.840;2023-07-29T14:40:06;20.90;;;7.80;;
45909;SDS011;31622;55.416;37.840;2023-07-29T14:42:32;22.63;;;8.27;;
45909;SDS011;31622;55.416;37.840;2023-07-29T14:44:58;17.42;;;6.90;;
45909;SDS011;31622;55.416;37.840;2023-07-29T14:47:23;14.90;;;6.93;;